sensor_id;sensor_type;location;lat;lon;timestamp;P1;durP1;ratioP1;P2;durP2;ratioP2
76865;SDS011;66647;52.124;5.416;2023-02-22T00:08:25;23.17;;;6.88;;
76865;SDS011;66647;52.124;5.416;2023-02-22T00:12:14;19.55;;;6.63;;
76865;SDS011;66647;52.124;5.416;2023-02-22T00:15:27;18.20;;;5.63;;
76865;SDS011;66647;52.124;5.416;2023-02-22T00:18:01;19.30;;;6.65;;
76865;SDS011;66647;52.124;5.416;2023-02-22T00:20:59;20.42;;;6.38;;
76865;SDS011;66647;52.124;5.416;2023-02-22T00:23:42;18.10;;;6.25;;
76865;SDS011;66647;52.124;5.416;2023-02-22T00:26:15;18.83;;;6.57;;
76865;SDS011;66647;52.124;5.416;2023-02-22T00:28:55;20.42;;;7.82;;
76865;SDS011;66647;52.124;5.416;2023-02-22T00:35:46;20.60;;;6.95;;
76865;SDS011;66647;52.124;5.416;2023-02-22T00:38:14;20.55;;;6.30;;
76865;SDS011;66647;52.124;5.416;2023-02-22T00:40:41;19.35;;;6.13;;
76865;SDS011;66647;52.124;5.416;2023-02-22T00:43:08;17.20;;;5.60;;
76865;SDS011;66647;52.124;5.416;2023-02-22T00:45:39;20.35;;;6.47;;
76865;SDS011;66647;52.124;5.416;2023-02-22T00:48:07;18.73;;;6.63;;
76865;SDS011;66647;52.124;5.416;2023-02-22T00:50:34;16.98;;;5.85;;
76865;SDS011;66647;52.124;5.416;2023-02-22T00:53:04;18.08;;;6.40;;
76865;SDS011;66647;52.124;5.416;2023-02-22T00:55:33;21.05;;;6.55;;
76865;SDS011;66647;52.124;5.416;2023-02-22T00:58:01;18.42;;;5.95;;
76865;SDS011;66647;52.124;5.416;2023-02-22T01:00:30;18.50;;;6.45;;
76865;SDS011;66647;52.124;5.416;2023-02-22T01:02:59;16.90;;;5.63;;
76865;SDS011;66647;52.124;5.416;2023-02-22T01:05:27;19.00;;;7.32;;
76865;SDS011;66647;52.124;5.416;2023-02-22T01:07:56;18.73;;;6.00;;
76865;SDS011;66647;52.124;5.416;2023-02-22T01:10:27;19.52;;;7.38;;
76865;SDS011;66647;52.124;5.416;2023-02-22T01:12:56;18.42;;;6.20;;
76865;SDS011;66647;52.124;5.416;2023-02-22T01:15:26;18.60;;;6.97;;
76865;SDS011;66647;52.124;5.416;2023-02-22T01:17:56;18.05;;;6.65;;
76865;SDS011;66647;52.124;5.416;2023-02-22T01:20:24;19.95;;;6.72;;
76865;SDS011;66647;52.124;5.416;2023-02-22T01:22:53;16.95;;;5.25;;
76865;SDS011;66647;52.124;5.416;2023-02-22T01:25:25;17.45;;;6.50;;
76865;SDS011;66647;52.124;5.416;2023-02-22T01:27:59;20.63;;;6.78;;
76865;SDS011;66647;52.124;5.416;2023-02-22T01:30:28;16.88;;;6.15;;
76865;SDS011;66647;52.124;5.416;2023-02-22T01:32:59;19.73;;;5.90;;
76865;SDS011;66647;52.124;5.416;2023-02-22T01:35:28;17.25;;;6.35;;
76865;SDS011;66647;52.124;5.416;2023-02-22T01:37:57;18.45;;;6.45;;
76865;SDS011;66647;52.124;5.416;2023-02-22T01:40:27;18.75;;;5.78;;
76865;SDS011;66647;52.124;5.416;2023-02-22T01:42:56;21.13;;;6.75;;
76865;SDS011;66647;52.124;5.416;2023-02-22T01:47:56;18.30;;;5.18;;
76865;SDS011;66647;52.124;5.416;2023-02-22T01:50:33;15.18;;;5.38;;
76865;SDS011;66647;52.124;5.416;2023-02-22T01:53:04;17.67;;;5.88;;
76865;SDS011;66647;52.124;5.416;2023-02-22T01:55:35;15.93;;;6.07;;
76865;SDS011;66647;52.124;5.416;2023-02-22T01:58:06;20.05;;;6.60;;
76865;SDS011;66647;52.124;5.416;2023-02-22T02:00:34;18.77;;;6.30;;
76865;SDS011;66647;52.124;5.416;2023-02-22T02:03:03;19.58;;;6.72;;
76865;SDS011;66647;52.124;5.416;2023-02-22T02:05:36;18.48;;;5.82;;
76865;SDS011;66647;52.124;5.416;2023-02-22T02:08:09;19.80;;;6.20;;
76865;SDS011;66647;52.124;5.416;2023-02-22T02:10:42;17.33;;;6.40;;
76865;SDS011;66647;52.124;5.416;2023-02-22T02:13:09;20.40;;;6.53;;
76865;SDS011;66647;52.124;5.416;2023-02-22T02:15:36;21.15;;;6.25;;
76865;SDS011;66647;52.124;5.416;2023-02-22T02:18:07;20.10;;;6.85;;
76865;SDS011;66647;52.124;5.416;2023-02-22T02:23:27;18.45;;;5.93;;
76865;SDS011;66647;52.124;5.416;2023-02-22T02:29:33;20.67;;;6.50;;
76865;SDS011;66647;52.124;5.416;2023-02-22T02:32:26;19.15;;;6.45;;
76865;SDS011;66647;52.124;5.416;2023-02-22T02:40:18;17.02;;;6.22;;
76865;SDS011;66647;52.124;5.416;2023-02-22T02:45:34;18.77;;;7.00;;
76865;SDS011;66647;52.124;5.416;2023-02-22T02:48:07;20.88;;;6.65;;
76865;SDS011;66647;52.124;5.416;2023-02-22T02:50:40;22.58;;;7.22;;
76865;SDS011;66647;52.124;5.416;2023-02-22T02:53:11;21.52;;;7.97;;
76865;SDS011;66647;52.124;5.416;2023-02-22T02:55:43;22.40;;;8.10;;
76865;SDS011;66647;52.124;5.416;2023-02-22T02:58:15;23.90;;;8.13;;
76865;SDS011;66647;52.124;5.416;2023-02-22T03:00:45;22.63;;;8.40;;
76865;SDS011;66647;52.124;5.416;2023-02-22T03:06:19;26.40;;;8.98;;
76865;SDS011;66647;52.124;5.416;2023-02-22T03:20:11;23.98;;;7.97;;
76865;SDS011;66647;52.124;5.416;2023-02-22T03:22:44;23.05;;;7.28;;
76865;SDS011;66647;52.124;5.416;2023-02-22T03:25:21;26.05;;;7.75;;
76865;SDS011;66647;52.124;5.416;2023-02-22T03:28:02;22.50;;;8.13;;
76865;SDS011;66647;52.124;5.416;2023-02-22T03:30:36;25.02;;;8.40;;
76865;SDS011;66647;52.124;5.416;2023-02-22T03:33:08;22.67;;;7.70;;
76865;SDS011;66647;52.124;5.416;2023-02-22T03:35:42;27.30;;;8.13;;
76865;SDS011;66647;52.124;5.416;2023-02-22T03:38:14;22.90;;;8.25;;
76865;SDS011;66647;52.124;5.416;2023-02-22T03:40:47;27.23;;;8.45;;
76865;SDS011;66647;52.124;5.416;2023-02-22T03:43:23;28.88;;;7.90;;
76865;SDS011;66647;52.124;5.416;2023-02-22T03:45:56;26.98;;;8.18;;
76865;SDS011;66647;52.124;5.416;2023-02-22T03:48:30;24.90;;;8.40;;
76865;SDS011;66647;52.124;5.416;2023-02-22T03:51:37;26.45;;;7.88;;
76865;SDS011;66647;52.124;5.416;2023-02-22T03:54:05;30.60;;;9.32;;
76865;SDS011;66647;52.124;5.416;2023-02-22T03:56:38;22.13;;;7.15;;
76865;SDS011;66647;52.124;5.416;2023-02-22T03:59:20;27.00;;;8.73;;
76865;SDS011;66647;52.124;5.416;2023-02-22T04:01:53;26.80;;;8.55;;
76865;SDS011;66647;52.124;5.416;2023-02-22T04:04:20;27.75;;;9.20;;
76865;SDS011;66647;52.124;5.416;2023-02-22T04:06:48;27.90;;;9.05;;
76865;SDS011;66647;52.124;5.416;2023-02-22T04:09:16;26.95;;;9.05;;
76865;SDS011;66647;52.124;5.416;2023-02-22T04:11:44;25.38;;;9.00;;
76865;SDS011;66647;52.124;5.416;2023-02-22T04:14:11;28.42;;;9.27;;
76865;SDS011;66647;52.124;5.416;2023-02-22T04:16:42;27.00;;;8.18;;
76865;SDS011;66647;52.124;5.416;2023-02-22T04:19:15;27.08;;;8.68;;
76865;SDS011;66647;52.124;5.416;2023-02-22T04:21:42;28.25;;;9.50;;
76865;SDS011;66647;52.124;5.416;2023-02-22T04:24:21;27.83;;;9.00;;
76865;SDS011;66647;52.124;5.416;2023-02-22T04:26:52;28.70;;;9.35;;
76865;SDS011;66647;52.124;5.416;2023-02-22T04:29:21;28.75;;;9.60;;
76865;SDS011;66647;52.124;5.416;2023-02-22T04:31:47;29.00;;;9.27;;
76865;SDS011;66647;52.124;5.416;2023-02-22T04:34:17;29.98;;;9.52;;
76865;SDS011;66647;52.124;5.416;2023-02-22T04:36:48;27.95;;;8.90;;
76865;SDS011;66647;52.124;5.416;2023-02-22T04:39:15;28.15;;;8.50;;
76865;SDS011;66647;52.124;5.416;2023-02-22T04:41:46;27.63;;;9.07;;
76865;SDS011;66647;52.124;5.416;2023-02-22T04:44:13;29.20;;;8.07;;
76865;SDS011;66647;52.124;5.416;2023-02-22T04:46:39;27.83;;;9.52;;
76865;SDS011;66647;52.124;5.416;2023-02-22T04:49:07;30.02;;;9.02;;
76865;SDS011;66647;52.124;5.416;2023-02-22T04:51:37;31.23;;;9.00;;
76865;SDS011;66647;52.124;5.416;2023-02-22T04:54:06;25.95;;;7.97;;
76865;SDS011;66647;52.124;5.416;2023-02-22T04:56:36;28.00;;;9.85;;
76865;SDS011;66647;52.124;5.416;2023-02-22T04:59:04;27.90;;;8.60;;
76865;SDS011;66647;52.124;5.416;2023-02-22T05:01:36;27.17;;;7.97;;
76865;SDS011;66647;52.124;5.416;2023-02-22T05:04:05;25.65;;;7.75;;
76865;SDS011;66647;52.124;5.416;2023-02-22T05:06:33;25.00;;;8.25;;
76865;SDS011;66647;52.124;5.416;2023-02-22T05:09:03;28.15;;;9.13;;
76865;SDS011;66647;52.124;5.416;2023-02-22T05:11:31;27.70;;;8.13;;
76865;SDS011;66647;52.124;5.416;2023-02-22T05:14:01;31.70;;;9.73;;
76865;SDS011;66647;52.124;5.416;2023-02-22T05:16:30;31.42;;;9.32;;
76865;SDS011;66647;52.124;5.416;2023-02-22T05:25:38;32.72;;;9.45;;
76865;SDS011;66647;52.124;5.416;2023-02-22T05:28:07;31.60;;;9.05;;
76865;SDS011;66647;52.124;5.416;2023-02-22T05:30:43;29.55;;;8.38;;
76865;SDS011;66647;52.124;5.416;2023-02-22T05:33:11;30.83;;;8.90;;
76865;SDS011;66647;52.124;5.416;2023-02-22T05:35:38;32.47;;;9.82;;
76865;SDS011;66647;52.124;5.416;2023-02-22T05:38:05;33.53;;;8.63;;
76865;SDS011;66647;52.124;5.416;2023-02-22T05:40:32;30.50;;;9.35;;
76865;SDS011;66647;52.124;5.416;2023-02-22T05:43:03;27.55;;;8.57;;
76865;SDS011;66647;52.124;5.416;2023-02-22T05:45:31;30.08;;;8.60;;
76865;SDS011;66647;52.124;5.416;2023-02-22T05:48:06;32.95;;;9.57;;
76865;SDS011;66647;52.124;5.416;2023-02-22T05:50:33;31.98;;;10.98;;
76865;SDS011;66647;52.124;5.416;2023-02-22T05:53:00;32.22;;;10.55;;
76865;SDS011;66647;52.124;5.416;2023-02-22T05:55:26;30.60;;;10.25;;
76865;SDS011;66647;52.124;5.416;2023-02-22T05:57:53;34.72;;;9.65;;
76865;SDS011;66647;52.124;5.416;2023-02-22T06:08:56;32.67;;;9.68;;
76865;SDS011;66647;52.124;5.416;2023-02-22T06:11:23;34.72;;;9.88;;
76865;SDS011;66647;52.124;5.416;2023-02-22T06:13:52;35.97;;;10.82;;
76865;SDS011;66647;52.124;5.416;2023-02-22T06:16:31;41.47;;;11.13;;
76865;SDS011;66647;52.124;5.416;2023-02-22T06:18:58;43.50;;;12.07;;
76865;SDS011;66647;52.124;5.416;2023-02-22T06:21:25;39.55;;;11.75;;
76865;SDS011;66647;52.124;5.416;2023-02-22T06:23:52;41.88;;;13.23;;
76865;SDS011;66647;52.124;5.416;2023-02-22T06:26:19;36.60;;;10.05;;
76865;SDS011;66647;52.124;5.416;2023-02-22T06:28:45;35.33;;;10.85;;
76865;SDS011;66647;52.124;5.416;2023-02-22T06:31:16;40.75;;;12.05;;
76865;SDS011;66647;52.124;5.416;2023-02-22T06:33:43;41.15;;;10.95;;
76865;SDS011;66647;52.124;5.416;2023-02-22T06:36:10;43.22;;;11.90;;
76865;SDS011;66647;52.124;5.416;2023-02-22T06:38:37;37.30;;;11.00;;
76865;SDS011;66647;52.124;5.416;2023-02-22T06:41:05;35.13;;;9.48;;
76865;SDS011;66647;52.124;5.416;2023-02-22T06:43:39;35.67;;;10.95;;
76865;SDS011;66647;52.124;5.416;2023-02-22T06:46:08;38.63;;;11.20;;
76865;SDS011;66647;52.124;5.416;2023-02-22T07:16:54;37.88;;;10.38;;
76865;SDS011;66647;52.124;5.416;2023-02-22T07:25:16;35.40;;;12.13;;
76865;SDS011;66647;52.124;5.416;2023-02-22T07:27:51;41.75;;;11.60;;
76865;SDS011;66647;52.124;5.416;2023-02-22T07:30:21;43.60;;;11.65;;
76865;SDS011;66647;52.124;5.416;2023-02-22T07:32:51;37.50;;;10.93;;
76865;SDS011;66647;52.124;5.416;2023-02-22T07:35:23;34.92;;;10.38;;
76865;SDS011;66647;52.124;5.416;2023-02-22T07:37:53;39.30;;;12.77;;
76865;SDS011;66647;52.124;5.416;2023-02-22T07:40:21;45.60;;;11.15;;
76865;SDS011;66647;52.124;5.416;2023-02-22T07:42:50;40.08;;;11.98;;
76865;SDS011;66647;52.124;5.416;2023-02-22T07:45:31;39.78;;;12.27;;
76865;SDS011;66647;52.124;5.416;2023-02-22T07:48:00;41.45;;;12.25;;
76865;SDS011;66647;52.124;5.416;2023-02-22T07:50:29;38.67;;;11.95;;
76865;SDS011;66647;52.124;5.416;2023-02-22T07:52:58;42.15;;;12.25;;
76865;SDS011;66647;52.124;5.416;2023-02-22T07:55:27;45.55;;;12.55;;
76865;SDS011;66647;52.124;5.416;2023-02-22T07:57:58;41.65;;;12.35;;
76865;SDS011;66647;52.124;5.416;2023-02-22T08:00:28;40.00;;;11.63;;
76865;SDS011;66647;52.124;5.416;2023-02-22T08:02:56;36.05;;;10.68;;
76865;SDS011;66647;52.124;5.416;2023-02-22T08:05:25;39.47;;;10.68;;
76865;SDS011;66647;52.124;5.416;2023-02-22T08:07:53;32.38;;;10.07;;
76865;SDS011;66647;52.124;5.416;2023-02-22T08:10:21;37.47;;;9.52;;
76865;SDS011;66647;52.124;5.416;2023-02-22T08:12:51;33.65;;;10.68;;
76865;SDS011;66647;52.124;5.416;2023-02-22T08:15:21;34.42;;;10.40;;
76865;SDS011;66647;52.124;5.416;2023-02-22T08:17:49;33.45;;;10.27;;
76865;SDS011;66647;52.124;5.416;2023-02-22T08:20:19;33.22;;;10.13;;
76865;SDS011;66647;52.124;5.416;2023-02-22T08:22:46;27.20;;;8.43;;
76865;SDS011;66647;52.124;5.416;2023-02-22T08:25:14;28.90;;;9.60;;
76865;SDS011;66647;52.124;5.416;2023-02-22T08:27:42;29.83;;;9.68;;
76865;SDS011;66647;52.124;5.416;2023-02-22T08:30:16;34.58;;;10.07;;
76865;SDS011;66647;52.124;5.416;2023-02-22T08:32:48;31.00;;;10.10;;
76865;SDS011;66647;52.124;5.416;2023-02-22T08:35:16;34.45;;;9.93;;
76865;SDS011;66647;52.124;5.416;2023-02-22T08:37:44;28.83;;;9.30;;
76865;SDS011;66647;52.124;5.416;2023-02-22T08:40:13;32.83;;;9.85;;
76865;SDS011;66647;52.124;5.416;2023-02-22T08:42:42;34.53;;;13.00;;
76865;SDS011;66647;52.124;5.416;2023-02-22T08:45:11;27.95;;;9.85;;
76865;SDS011;66647;52.124;5.416;2023-02-22T08:47:39;26.67;;;8.45;;
76865;SDS011;66647;52.124;5.416;2023-02-22T08:50:07;25.85;;;8.55;;
76865;SDS011;66647;52.124;5.416;2023-02-22T08:52:35;25.45;;;9.35;;
76865;SDS011;66647;52.124;5.416;2023-02-22T08:55:01;25.98;;;8.80;;
76865;SDS011;66647;52.124;5.416;2023-02-22T08:57:28;28.60;;;9.77;;
76865;SDS011;66647;52.124;5.416;2023-02-22T08:59:54;26.48;;;8.68;;
76865;SDS011;66647;52.124;5.416;2023-02-22T09:02:21;26.83;;;8.70;;
76865;SDS011;66647;52.124;5.416;2023-02-22T09:04:48;25.08;;;8.07;;
76865;SDS011;66647;52.124;5.416;2023-02-22T09:07:15;28.58;;;10.10;;
76865;SDS011;66647;52.124;5.416;2023-02-22T09:09:51;25.33;;;9.02;;
76865;SDS011;66647;52.124;5.416;2023-02-22T09:12:17;26.25;;;8.93;;
76865;SDS011;66647;52.124;5.416;2023-02-22T09:14:44;25.48;;;9.25;;
76865;SDS011;66647;52.124;5.416;2023-02-22T09:17:10;25.48;;;8.70;;
76865;SDS011;66647;52.124;5.416;2023-02-22T09:19:37;28.45;;;9.23;;
76865;SDS011;66647;52.124;5.416;2023-02-22T09:22:05;23.55;;;9.23;;
76865;SDS011;66647;52.124;5.416;2023-02-22T09:24:33;26.38;;;7.93;;
76865;SDS011;66647;52.124;5.416;2023-02-22T09:26:59;25.95;;;9.52;;
76865;SDS011;66647;52.124;5.416;2023-02-22T09:29:29;24.92;;;8.75;;
76865;SDS011;66647;52.124;5.416;2023-02-22T09:31:57;24.70;;;9.00;;
76865;SDS011;66647;52.124;5.416;2023-02-22T09:34:24;29.48;;;9.63;;
76865;SDS011;66647;52.124;5.416;2023-02-22T09:39:25;26.08;;;8.50;;
76865;SDS011;66647;52.124;5.416;2023-02-22T09:44:50;25.80;;;8.15;;
76865;SDS011;66647;52.124;5.416;2023-02-22T09:47:39;27.17;;;9.60;;
76865;SDS011;66647;52.124;5.416;2023-02-22T09:50:15;25.60;;;9.48;;
76865;SDS011;66647;52.124;5.416;2023-02-22T09:52:52;24.80;;;9.30;;
76865;SDS011;66647;52.124;5.416;2023-02-22T09:55:53;25.23;;;8.90;;
76865;SDS011;66647;52.124;5.416;2023-02-22T09:58:19;24.05;;;8.48;;
76865;SDS011;66647;52.124;5.416;2023-02-22T10:00:50;23.55;;;8.73;;
76865;SDS011;66647;52.124;5.416;2023-02-22T10:03:28;24.10;;;9.00;;
76865;SDS011;66647;52.124;5.416;2023-02-22T10:06:11;23.23;;;8.68;;
76865;SDS011;66647;52.124;5.416;2023-02-22T10:08:41;25.63;;;8.73;;
76865;SDS011;66647;52.124;5.416;2023-02-22T10:21:45;22.23;;;9.38;;
76865;SDS011;66647;52.124;5.416;2023-02-22T10:27:12;22.70;;;8.93;;
76865;SDS011;66647;52.124;5.416;2023-02-22T10:29:44;25.15;;;10.18;;
76865;SDS011;66647;52.124;5.416;2023-02-22T10:32:16;22.92;;;9.15;;
76865;SDS011;66647;52.124;5.416;2023-02-22T10:34:49;23.08;;;8.23;;
76865;SDS011;66647;52.124;5.416;2023-02-22T10:37:23;22.15;;;9.65;;
76865;SDS011;66647;52.124;5.416;2023-02-22T10:39:52;25.30;;;9.95;;
76865;SDS011;66647;52.124;5.416;2023-02-22T10:42:24;22.00;;;8.85;;
76865;SDS011;66647;52.124;5.416;2023-02-22T10:44:52;26.25;;;10.40;;
76865;SDS011;66647;52.124;5.416;2023-02-22T10:47:19;23.13;;;9.35;;
76865;SDS011;66647;52.124;5.416;2023-02-22T10:49:57;22.67;;;8.55;;
76865;SDS011;66647;52.124;5.416;2023-02-22T10:52:27;22.02;;;8.95;;
76865;SDS011;66647;52.124;5.416;2023-02-22T10:54:56;25.63;;;9.05;;
76865;SDS011;66647;52.124;5.416;2023-02-22T10:57:40;21.63;;;9.68;;
76865;SDS011;66647;52.124;5.416;2023-02-22T11:00:17;23.08;;;9.00;;
76865;SDS011;66647;52.124;5.416;2023-02-22T11:02:55;21.77;;;8.18;;
76865;SDS011;66647;52.124;5.416;2023-02-22T11:05:28;22.35;;;8.25;;
76865;SDS011;66647;52.124;5.416;2023-02-22T11:11:02;21.52;;;8.88;;
76865;SDS011;66647;52.124;5.416;2023-02-22T11:13:46;24.30;;;8.02;;
76865;SDS011;66647;52.124;5.416;2023-02-22T11:16:27;20.73;;;7.80;;
76865;SDS011;66647;52.124;5.416;2023-02-22T11:21:47;22.23;;;8.32;;
76865;SDS011;66647;52.124;5.416;2023-02-22T11:24:16;25.38;;;9.23;;
76865;SDS011;66647;52.124;5.416;2023-02-22T11:26:49;23.27;;;7.93;;
76865;SDS011;66647;52.124;5.416;2023-02-22T11:29:21;25.20;;;8.07;;
76865;SDS011;66647;52.124;5.416;2023-02-22T11:31:57;26.15;;;8.10;;
76865;SDS011;66647;52.124;5.416;2023-02-22T11:37:16;25.50;;;8.40;;
76865;SDS011;66647;52.124;5.416;2023-02-22T11:42:33;25.35;;;8.82;;
76865;SDS011;66647;52.124;5.416;2023-02-22T11:45:07;27.08;;;8.40;;
76865;SDS011;66647;52.124;5.416;2023-02-22T11:47:35;27.25;;;9.30;;
76865;SDS011;66647;52.124;5.416;2023-02-22T11:50:38;24.75;;;9.23;;
76865;SDS011;66647;52.124;5.416;2023-02-22T12:01:41;27.95;;;9.00;;
76865;SDS011;66647;52.124;5.416;2023-02-22T12:04:24;25.60;;;8.57;;
76865;SDS011;66647;52.124;5.416;2023-02-22T12:07:24;26.90;;;8.10;;
76865;SDS011;66647;52.124;5.416;2023-02-22T12:10:25;23.95;;;8.18;;
76865;SDS011;66647;52.124;5.416;2023-02-22T12:13:09;27.50;;;8.40;;
76865;SDS011;66647;52.124;5.416;2023-02-22T12:15:58;27.08;;;8.85;;
76865;SDS011;66647;52.124;5.416;2023-02-22T12:18:46;25.98;;;8.50;;
76865;SDS011;66647;52.124;5.416;2023-02-22T12:21:20;27.48;;;9.35;;
76865;SDS011;66647;52.124;5.416;2023-02-22T12:23:52;24.83;;;8.88;;
76865;SDS011;66647;52.124;5.416;2023-02-22T12:26:36;26.55;;;9.73;;
76865;SDS011;66647;52.124;5.416;2023-02-22T12:29:23;24.73;;;8.23;;
76865;SDS011;66647;52.124;5.416;2023-02-22T12:31:58;25.83;;;9.13;;
76865;SDS011;66647;52.124;5.416;2023-02-22T12:34:32;27.27;;;8.20;;
76865;SDS011;66647;52.124;5.416;2023-02-22T12:37:10;21.38;;;7.63;;
76865;SDS011;66647;52.124;5.416;2023-02-22T12:39:45;25.10;;;8.05;;
76865;SDS011;66647;52.124;5.416;2023-02-22T12:42:43;24.98;;;8.38;;
76865;SDS011;66647;52.124;5.416;2023-02-22T12:45:23;27.75;;;8.80;;
76865;SDS011;66647;52.124;5.416;2023-02-22T12:50:48;24.25;;;7.53;;
76865;SDS011;66647;52.124;5.416;2023-02-22T13:01:16;24.13;;;8.73;;
76865;SDS011;66647;52.124;5.416;2023-02-22T13:04:15;21.05;;;7.93;;
76865;SDS011;66647;52.124;5.416;2023-02-22T13:18:58;24.65;;;9.52;;
76865;SDS011;66647;52.124;5.416;2023-02-22T13:25:18;21.08;;;7.78;;
76865;SDS011;66647;52.124;5.416;2023-02-22T13:28:17;22.90;;;8.45;;
76865;SDS011;66647;52.124;5.416;2023-02-22T13:31:09;25.23;;;9.30;;
76865;SDS011;66647;52.124;5.416;2023-02-22T13:34:01;20.17;;;7.95;;
76865;SDS011;66647;52.124;5.416;2023-02-22T13:36:52;21.02;;;8.48;;
76865;SDS011;66647;52.124;5.416;2023-02-22T13:51:40;18.85;;;7.22;;
76865;SDS011;66647;52.124;5.416;2023-02-22T13:56:48;22.98;;;7.88;;
76865;SDS011;66647;52.124;5.416;2023-02-22T13:59:33;20.30;;;7.93;;
76865;SDS011;66647;52.124;5.416;2023-02-22T14:02:02;21.85;;;8.38;;
76865;SDS011;66647;52.124;5.416;2023-02-22T14:04:34;22.38;;;7.82;;
76865;SDS011;66647;52.124;5.416;2023-02-22T14:09:49;20.98;;;8.75;;
76865;SDS011;66647;52.124;5.416;2023-02-22T14:17:58;17.98;;;7.38;;
76865;SDS011;66647;52.124;5.416;2023-02-22T14:20:28;18.75;;;7.32;;
76865;SDS011;66647;52.124;5.416;2023-02-22T14:26:13;20.75;;;8.02;;
76865;SDS011;66647;52.124;5.416;2023-02-22T14:28:41;19.85;;;7.57;;
76865;SDS011;66647;52.124;5.416;2023-02-22T14:31:17;19.55;;;7.80;;
76865;SDS011;66647;52.124;5.416;2023-02-22T14:36:45;21.95;;;7.72;;
76865;SDS011;66647;52.124;5.416;2023-02-22T14:47:50;18.20;;;7.15;;
76865;SDS011;66647;52.124;5.416;2023-02-22T14:53:19;17.75;;;7.35;;
76865;SDS011;66647;52.124;5.416;2023-02-22T14:56:06;19.75;;;7.40;;
76865;SDS011;66647;52.124;5.416;2023-02-22T14:58:40;18.88;;;6.70;;
76865;SDS011;66647;52.124;5.416;2023-02-22T15:01:31;18.90;;;7.95;;
76865;SDS011;66647;52.124;5.416;2023-02-22T15:04:36;18.30;;;6.88;;
76865;SDS011;66647;52.124;5.416;2023-02-22T15:07:10;16.83;;;7.35;;
76865;SDS011;66647;52.124;5.416;2023-02-22T15:09:46;16.23;;;6.78;;
76865;SDS011;66647;52.124;5.416;2023-02-22T15:12:22;17.95;;;7.20;;
76865;SDS011;66647;52.124;5.416;2023-02-22T15:15:12;22.63;;;7.18;;
76865;SDS011;66647;52.124;5.416;2023-02-22T15:17:55;15.45;;;6.97;;
76865;SDS011;66647;52.124;5.416;2023-02-22T15:20:23;14.05;;;6.25;;
76865;SDS011;66647;52.124;5.416;2023-02-22T15:23:00;17.65;;;7.22;;
76865;SDS011;66647;52.124;5.416;2023-02-22T15:25:27;17.20;;;7.97;;
76865;SDS011;66647;52.124;5.416;2023-02-22T15:28:02;18.23;;;7.07;;
76865;SDS011;66647;52.124;5.416;2023-02-22T15:30:31;17.88;;;7.20;;
76865;SDS011;66647;52.124;5.416;2023-02-22T15:33:18;15.63;;;6.45;;
76865;SDS011;66647;52.124;5.416;2023-02-22T15:35:54;20.48;;;7.07;;
76865;SDS011;66647;52.124;5.416;2023-02-22T15:38:30;16.92;;;7.28;;
76865;SDS011;66647;52.124;5.416;2023-02-22T15:40:59;15.98;;;6.05;;
76865;SDS011;66647;52.124;5.416;2023-02-22T15:46:00;16.80;;;6.63;;
76865;SDS011;66647;52.124;5.416;2023-02-22T15:48:28;17.17;;;7.57;;
76865;SDS011;66647;52.124;5.416;2023-02-22T15:51:01;17.80;;;8.73;;
76865;SDS011;66647;52.124;5.416;2023-02-22T15:53:40;15.48;;;7.93;;
76865;SDS011;66647;52.124;5.416;2023-02-22T15:56:14;18.50;;;8.00;;
76865;SDS011;66647;52.124;5.416;2023-02-22T15:58:50;17.65;;;7.82;;
76865;SDS011;66647;52.124;5.416;2023-02-22T16:01:23;14.65;;;7.20;;
76865;SDS011;66647;52.124;5.416;2023-02-22T16:03:57;17.30;;;8.07;;
76865;SDS011;66647;52.124;5.416;2023-02-22T16:06:37;18.92;;;8.15;;
76865;SDS011;66647;52.124;5.416;2023-02-22T16:09:08;17.27;;;7.72;;
76865;SDS011;66647;52.124;5.416;2023-02-22T16:11:41;17.77;;;8.50;;
76865;SDS011;66647;52.124;5.416;2023-02-22T16:14:38;19.33;;;8.73;;
76865;SDS011;66647;52.124;5.416;2023-02-22T16:19:39;17.02;;;8.00;;
76865;SDS011;66647;52.124;5.416;2023-02-22T16:27:52;18.05;;;7.68;;
76865;SDS011;66647;52.124;5.416;2023-02-22T16:30:24;17.02;;;8.18;;
76865;SDS011;66647;52.124;5.416;2023-02-22T16:32:59;18.52;;;9.05;;
76865;SDS011;66647;52.124;5.416;2023-02-22T16:35:30;19.38;;;8.73;;
76865;SDS011;66647;52.124;5.416;2023-02-22T16:38:05;21.17;;;9.23;;
76865;SDS011;66647;52.124;5.416;2023-02-22T16:40:34;16.90;;;8.75;;
76865;SDS011;66647;52.124;5.416;2023-02-22T16:43:07;19.35;;;8.80;;
76865;SDS011;66647;52.124;5.416;2023-02-22T16:45:39;19.55;;;10.13;;
76865;SDS011;66647;52.124;5.416;2023-02-22T16:48:20;17.38;;;8.30;;
76865;SDS011;66647;52.124;5.416;2023-02-22T16:50:52;24.45;;;10.68;;
76865;SDS011;66647;52.124;5.416;2023-02-22T16:53:21;20.25;;;9.27;;
76865;SDS011;66647;52.124;5.416;2023-02-22T16:55:50;21.50;;;9.68;;
76865;SDS011;66647;52.124;5.416;2023-02-22T16:58:22;20.80;;;10.30;;
76865;SDS011;66647;52.124;5.416;2023-02-22T17:03:20;20.77;;;9.15;;
76865;SDS011;66647;52.124;5.416;2023-02-22T17:05:47;17.52;;;9.13;;
76865;SDS011;66647;52.124;5.416;2023-02-22T17:08:13;18.67;;;9.52;;
76865;SDS011;66647;52.124;5.416;2023-02-22T17:10:58;20.00;;;9.48;;
76865;SDS011;66647;52.124;5.416;2023-02-22T17:13:25;20.63;;;9.40;;
76865;SDS011;66647;52.124;5.416;2023-02-22T17:15:53;23.95;;;10.35;;
76865;SDS011;66647;52.124;5.416;2023-02-22T17:18:21;24.30;;;9.75;;
76865;SDS011;66647;52.124;5.416;2023-02-22T17:20:54;21.88;;;8.88;;
76865;SDS011;66647;52.124;5.416;2023-02-22T17:23:24;22.23;;;10.15;;
76865;SDS011;66647;52.124;5.416;2023-02-22T17:25:56;23.50;;;10.60;;
76865;SDS011;66647;52.124;5.416;2023-02-22T17:28:27;22.92;;;12.07;;
76865;SDS011;66647;52.124;5.416;2023-02-22T17:30:54;25.13;;;11.55;;
76865;SDS011;66647;52.124;5.416;2023-02-22T17:33:34;28.92;;;13.68;;
76865;SDS011;66647;52.124;5.416;2023-02-22T17:36:02;32.67;;;12.88;;
76865;SDS011;66647;52.124;5.416;2023-02-22T17:38:31;26.27;;;13.32;;
76865;SDS011;66647;52.124;5.416;2023-02-22T17:40:59;27.40;;;13.45;;
76865;SDS011;66647;52.124;5.416;2023-02-22T17:43:26;28.50;;;13.63;;
76865;SDS011;66647;52.124;5.416;2023-02-22T17:45:55;34.45;;;15.60;;
76865;SDS011;66647;52.124;5.416;2023-02-22T17:48:33;31.38;;;15.73;;
76865;SDS011;66647;52.124;5.416;2023-02-22T17:51:07;31.60;;;15.63;;
76865;SDS011;66647;52.124;5.416;2023-02-22T17:56:51;35.15;;;17.35;;
76865;SDS011;66647;52.124;5.416;2023-02-22T17:59:19;34.63;;;15.35;;
76865;SDS011;66647;52.124;5.416;2023-02-22T18:01:53;32.15;;;15.43;;
76865;SDS011;66647;52.124;5.416;2023-02-22T18:04:19;37.00;;;16.38;;
76865;SDS011;66647;52.124;5.416;2023-02-22T18:06:46;31.25;;;15.70;;
76865;SDS011;66647;52.124;5.416;2023-02-22T18:09:22;31.20;;;15.95;;
76865;SDS011;66647;52.124;5.416;2023-02-22T18:11:53;35.72;;;16.85;;
76865;SDS011;66647;52.124;5.416;2023-02-22T18:14:28;35.05;;;17.60;;
76865;SDS011;66647;52.124;5.416;2023-02-22T18:16:56;29.70;;;16.08;;
76865;SDS011;66647;52.124;5.416;2023-02-22T18:19:36;36.88;;;15.85;;
76865;SDS011;66647;52.124;5.416;2023-02-22T18:23:08;42.72;;;19.23;;
76865;SDS011;66647;52.124;5.416;2023-02-22T18:26:00;36.25;;;16.70;;
76865;SDS011;66647;52.124;5.416;2023-02-22T18:28:48;41.17;;;18.42;;
76865;SDS011;66647;52.124;5.416;2023-02-22T18:34:09;46.10;;;19.65;;
76865;SDS011;66647;52.124;5.416;2023-02-22T18:36:38;37.45;;;18.73;;
76865;SDS011;66647;52.124;5.416;2023-02-22T18:39:04;42.53;;;19.60;;
76865;SDS011;66647;52.124;5.416;2023-02-22T18:41:37;40.00;;;19.83;;
76865;SDS011;66647;52.124;5.416;2023-02-22T18:44:04;44.00;;;19.15;;